sensor_id;sensor_type;location;lat;lon;timestamp;P1;durP1;ratioP1;P2;durP2;ratioP2
842;SDS011;407;48.884;9.126;2023-01-30T00:01:12;21.45;;;8.20;;
842;SDS011;407;48.884;9.126;2023-01-30T00:03:43;19.45;;;8.52;;
842;SDS011;407;48.884;9.126;2023-01-30T00:06:09;17.70;;;8.77;;
842;SDS011;407;48.884;9.126;2023-01-30T00:08:35;19.40;;;8.48;;
842;SDS011;407;48.884;9.126;2023-01-30T00:11:04;17.40;;;9.13;;
842;SDS011;407;48.884;9.126;2023-01-30T00:13:31;20.73;;;8.98;;
842;SDS011;407;48.884;9.126;2023-01-30T00:15:57;16.95;;;8.27;;
842;SDS011;407;48.884;9.126;2023-01-30T00:18:23;15.63;;;7.95;;
842;SDS011;407;48.884;9.126;2023-01-30T00:20:54;21.60;;;9.60;;
842;SDS011;407;48.884;9.126;2023-01-30T00:23:26;17.33;;;8.20;;
842;SDS011;407;48.884;9.126;2023-01-30T00:25:53;17.40;;;7.45;;
842;SDS011;407;48.884;9.126;2023-01-30T00:28:19;19.45;;;8.30;;
842;SDS011;407;48.884;9.126;2023-01-30T00:30:47;21.00;;;7.85;;
842;SDS011;407;48.884;9.126;2023-01-30T00:33:13;17.40;;;8.95;;
842;SDS011;407;48.884;9.126;2023-01-30T00:35:45;19.70;;;8.47;;
842;SDS011;407;48.884;9.126;2023-01-30T00:38:12;19.35;;;7.78;;
842;SDS011;407;48.884;9.126;2023-01-30T00:40:38;16.55;;;7.72;;
842;SDS011;407;48.884;9.126;2023-01-30T00:43:04;17.05;;;8.60;;
842;SDS011;407;48.884;9.126;2023-01-30T00:45:48;18.17;;;7.93;;
842;SDS011;407;48.884;9.126;2023-01-30T00:48:35;18.85;;;8.55;;
842;SDS011;407;48.884;9.126;2023-01-30T00:51:00;20.50;;;9.63;;
842;SDS011;407;48.884;9.126;2023-01-30T00:53:26;18.35;;;7.72;;
842;SDS011;407;48.884;9.126;2023-01-30T00:55:53;17.47;;;7.80;;
842;SDS011;407;48.884;9.126;2023-01-30T00:58:25;20.05;;;8.73;;
842;SDS011;407;48.884;9.126;2023-01-30T01:00:50;19.92;;;8.27;;
842;SDS011;407;48.884;9.126;2023-01-30T01:03:16;20.55;;;8.40;;
842;SDS011;407;48.884;9.126;2023-01-30T01:05:43;17.80;;;7.35;;
842;SDS011;407;48.884;9.126;2023-01-30T01:08:08;21.70;;;9.60;;
842;SDS011;407;48.884;9.126;2023-01-30T01:10:35;21.70;;;8.32;;
842;SDS011;407;48.884;9.126;2023-01-30T01:13:01;21.35;;;8.55;;
842;SDS011;407;48.884;9.126;2023-01-30T01:15:27;19.02;;;8.10;;
842;SDS011;407;48.884;9.126;2023-01-30T01:17:53;17.63;;;8.45;;
842;SDS011;407;48.884;9.126;2023-01-30T01:20:19;21.63;;;8.60;;
842;SDS011;407;48.884;9.126;2023-01-30T01:22:46;20.23;;;9.97;;
842;SDS011;407;48.884;9.126;2023-01-30T01:25:16;26.10;;;10.90;;
842;SDS011;407;48.884;9.126;2023-01-30T01:27:43;21.08;;;9.70;;
842;SDS011;407;48.884;9.126;2023-01-30T01:30:09;17.77;;;8.30;;
842;SDS011;407;48.884;9.126;2023-01-30T01:32:35;20.50;;;10.13;;
842;SDS011;407;48.884;9.126;2023-01-30T01:35:01;19.83;;;9.45;;
842;SDS011;407;48.884;9.126;2023-01-30T01:37:26;17.40;;;8.83;;
842;SDS011;407;48.884;9.126;2023-01-30T01:39:52;21.17;;;8.30;;
842;SDS011;407;48.884;9.126;2023-01-30T01:42:36;21.35;;;8.90;;
842;SDS011;407;48.884;9.126;2023-01-30T01:47:38;20.45;;;9.15;;
842;SDS011;407;48.884;9.126;2023-01-30T01:50:37;23.17;;;9.63;;
842;SDS011;407;48.884;9.126;2023-01-30T01:53:33;19.90;;;8.23;;
842;SDS011;407;48.884;9.126;2023-01-30T01:56:02;19.50;;;8.15;;
842;SDS011;407;48.884;9.126;2023-01-30T01:59:31;19.77;;;9.32;;
842;SDS011;407;48.884;9.126;2023-01-30T02:01:30;18.77;;;8.75;;
842;SDS011;407;48.884;9.126;2023-01-30T02:03:57;22.42;;;9.32;;
842;SDS011;407;48.884;9.126;2023-01-30T02:06:27;21.77;;;9.38;;
842;SDS011;407;48.884;9.126;2023-01-30T02:08:54;19.67;;;8.48;;
842;SDS011;407;48.884;9.126;2023-01-30T02:14:07;19.52;;;8.20;;
842;SDS011;407;48.884;9.126;2023-01-30T02:16:35;19.25;;;8.27;;
842;SDS011;407;48.884;9.126;2023-01-30T02:19:01;23.65;;;9.35;;
842;SDS011;407;48.884;9.126;2023-01-30T02:34:58;17.53;;;8.10;;
842;SDS011;407;48.884;9.126;2023-01-30T02:40:35;21.30;;;8.73;;
842;SDS011;407;48.884;9.126;2023-01-30T02:45:56;20.00;;;9.20;;
842;SDS011;407;48.884;9.126;2023-01-30T02:51:15;16.70;;;8.95;;
842;SDS011;407;48.884;9.126;2023-01-30T02:53:45;20.77;;;9.17;;
842;SDS011;407;48.884;9.126;2023-01-30T02:56:12;20.05;;;8.75;;
842;SDS011;407;48.884;9.126;2023-01-30T02:58:41;19.02;;;8.75;;
842;SDS011;407;48.884;9.126;2023-01-30T03:06:58;20.73;;;8.57;;
842;SDS011;407;48.884;9.126;2023-01-30T03:12:24;19.05;;;8.27;;
842;SDS011;407;48.884;9.126;2023-01-30T03:15:07;21.95;;;8.80;;
842;SDS011;407;48.884;9.126;2023-01-30T03:17:35;18.40;;;7.18;;
842;SDS011;407;48.884;9.126;2023-01-30T03:20:04;17.52;;;7.63;;
842;SDS011;407;48.884;9.126;2023-01-30T03:22:31;16.53;;;6.90;;
842;SDS011;407;48.884;9.126;2023-01-30T03:24:56;20.13;;;8.60;;
842;SDS011;407;48.884;9.126;2023-01-30T03:27:22;17.00;;;7.55;;
842;SDS011;407;48.884;9.126;2023-01-30T03:29:48;18.73;;;7.93;;
842;SDS011;407;48.884;9.126;2023-01-30T03:32:14;16.87;;;8.20;;
842;SDS011;407;48.884;9.126;2023-01-30T03:34:39;19.15;;;6.90;;
842;SDS011;407;48.884;9.126;2023-01-30T03:37:05;19.10;;;7.32;;
842;SDS011;407;48.884;9.126;2023-01-30T03:39:31;17.37;;;7.23;;
842;SDS011;407;48.884;9.126;2023-01-30T03:41:57;15.93;;;6.63;;
842;SDS011;407;48.884;9.126;2023-01-30T03:44:22;15.50;;;6.72;;
842;SDS011;407;48.884;9.126;2023-01-30T03:46:48;14.77;;;6.93;;
842;SDS011;407;48.884;9.126;2023-01-30T03:49:13;18.60;;;7.10;;
842;SDS011;407;48.884;9.126;2023-01-30T03:51:39;15.95;;;6.97;;
842;SDS011;407;48.884;9.126;2023-01-30T03:54:05;15.80;;;6.57;;
842;SDS011;407;48.884;9.126;2023-01-30T03:56:30;13.30;;;5.73;;
842;SDS011;407;48.884;9.126;2023-01-30T03:58:56;14.48;;;5.88;;
842;SDS011;407;48.884;9.126;2023-01-30T04:01:22;14.20;;;5.80;;
842;SDS011;407;48.884;9.126;2023-01-30T04:03:47;12.80;;;5.30;;
842;SDS011;407;48.884;9.126;2023-01-30T04:06:13;15.77;;;6.07;;
842;SDS011;407;48.884;9.126;2023-01-30T04:08:38;13.80;;;5.60;;
842;SDS011;407;48.884;9.126;2023-01-30T04:11:06;17.80;;;6.30;;
842;SDS011;407;48.884;9.126;2023-01-30T04:13:31;13.80;;;6.20;;
842;SDS011;407;48.884;9.126;2023-01-30T04:18:58;16.47;;;6.50;;
842;SDS011;407;48.884;9.126;2023-01-30T04:21:23;14.77;;;5.83;;
842;SDS011;407;48.884;9.126;2023-01-30T04:23:49;12.95;;;5.00;;
842;SDS011;407;48.884;9.126;2023-01-30T04:26:15;17.40;;;7.63;;
842;SDS011;407;48.884;9.126;2023-01-30T04:28:40;15.73;;;6.63;;
842;SDS011;407;48.884;9.126;2023-01-30T04:31:06;15.17;;;5.87;;
842;SDS011;407;48.884;9.126;2023-01-30T04:33:32;11.53;;;5.60;;
842;SDS011;407;48.884;9.126;2023-01-30T04:35:59;16.10;;;6.13;;
842;SDS011;407;48.884;9.126;2023-01-30T04:38:27;14.10;;;5.10;;
842;SDS011;407;48.884;9.126;2023-01-30T04:40:54;13.38;;;5.20;;
842;SDS011;407;48.884;9.126;2023-01-30T04:43:21;11.75;;;5.78;;
842;SDS011;407;48.884;9.126;2023-01-30T04:45:48;14.52;;;6.60;;
842;SDS011;407;48.884;9.126;2023-01-30T04:48:14;18.25;;;6.47;;
842;SDS011;407;48.884;9.126;2023-01-30T04:50:41;15.85;;;6.20;;
842;SDS011;407;48.884;9.126;2023-01-30T04:53:08;15.23;;;6.33;;
842;SDS011;407;48.884;9.126;2023-01-30T04:55:34;16.13;;;5.88;;
842;SDS011;407;48.884;9.126;2023-01-30T04:58:01;11.27;;;5.20;;
842;SDS011;407;48.884;9.126;2023-01-30T05:00:26;13.20;;;5.53;;
842;SDS011;407;48.884;9.126;2023-01-30T05:02:52;14.73;;;5.70;;
842;SDS011;407;48.884;9.126;2023-01-30T05:05:20;12.40;;;5.20;;
842;SDS011;407;48.884;9.126;2023-01-30T05:07:46;16.42;;;5.90;;
842;SDS011;407;48.884;9.126;2023-01-30T05:10:11;11.63;;;5.15;;
842;SDS011;407;48.884;9.126;2023-01-30T05:12:37;13.23;;;4.77;;
842;SDS011;407;48.884;9.126;2023-01-30T05:15:03;15.75;;;6.68;;
842;SDS011;407;48.884;9.126;2023-01-30T05:17:30;11.50;;;4.82;;
842;SDS011;407;48.884;9.126;2023-01-30T05:19:57;14.43;;;6.22;;
842;SDS011;407;48.884;9.126;2023-01-30T05:22:22;10.63;;;4.93;;
842;SDS011;407;48.884;9.126;2023-01-30T05:24:48;11.77;;;5.63;;
842;SDS011;407;48.884;9.126;2023-01-30T05:27:13;14.52;;;6.00;;
842;SDS011;407;48.884;9.126;2023-01-30T05:29:39;14.30;;;5.85;;
842;SDS011;407;48.884;9.126;2023-01-30T05:32:05;14.75;;;5.90;;
842;SDS011;407;48.884;9.126;2023-01-30T05:34:31;13.02;;;5.35;;
842;SDS011;407;48.884;9.126;2023-01-30T05:36:57;13.00;;;5.32;;
842;SDS011;407;48.884;9.126;2023-01-30T05:39:23;13.43;;;6.13;;
842;SDS011;407;48.884;9.126;2023-01-30T05:41:48;13.70;;;5.30;;
842;SDS011;407;48.884;9.126;2023-01-30T05:44:14;14.15;;;5.03;;
842;SDS011;407;48.884;9.126;2023-01-30T05:46:39;14.27;;;5.67;;
842;SDS011;407;48.884;9.126;2023-01-30T05:49:05;14.17;;;4.83;;
842;SDS011;407;48.884;9.126;2023-01-30T05:51:31;12.15;;;5.70;;
842;SDS011;407;48.884;9.126;2023-01-30T05:53:57;15.68;;;6.35;;
842;SDS011;407;48.884;9.126;2023-01-30T05:56:23;12.98;;;5.45;;
842;SDS011;407;48.884;9.126;2023-01-30T05:58:52;11.23;;;5.00;;
842;SDS011;407;48.884;9.126;2023-01-30T06:01:19;14.95;;;6.07;;
842;SDS011;407;48.884;9.126;2023-01-30T06:03:45;12.20;;;4.55;;
842;SDS011;407;48.884;9.126;2023-01-30T06:06:11;13.70;;;5.65;;
842;SDS011;407;48.884;9.126;2023-01-30T06:08:36;13.45;;;5.47;;
842;SDS011;407;48.884;9.126;2023-01-30T06:11:06;13.25;;;5.03;;
842;SDS011;407;48.884;9.126;2023-01-30T06:13:34;13.35;;;5.32;;
842;SDS011;407;48.884;9.126;2023-01-30T06:16:00;13.70;;;5.23;;
842;SDS011;407;48.884;9.126;2023-01-30T06:18:25;13.20;;;5.23;;
842;SDS011;407;48.884;9.126;2023-01-30T06:20:52;10.52;;;4.53;;
842;SDS011;407;48.884;9.126;2023-01-30T06:23:18;14.50;;;5.60;;
842;SDS011;407;48.884;9.126;2023-01-30T06:25:45;15.10;;;4.90;;
842;SDS011;407;48.884;9.126;2023-01-30T06:28:12;10.93;;;4.32;;
842;SDS011;407;48.884;9.126;2023-01-30T06:30:38;10.60;;;3.87;;
842;SDS011;407;48.884;9.126;2023-01-30T06:33:04;15.53;;;5.40;;
842;SDS011;407;48.884;9.126;2023-01-30T06:35:30;11.93;;;4.70;;
842;SDS011;407;48.884;9.126;2023-01-30T06:37:56;12.43;;;5.20;;
842;SDS011;407;48.884;9.126;2023-01-30T06:40:22;14.80;;;5.10;;
842;SDS011;407;48.884;9.126;2023-01-30T06:42:48;16.38;;;5.80;;
842;SDS011;407;48.884;9.126;2023-01-30T06:45:14;13.88;;;4.72;;
842;SDS011;407;48.884;9.126;2023-01-30T06:47:45;10.43;;;4.43;;
842;SDS011;407;48.884;9.126;2023-01-30T06:50:16;14.88;;;5.30;;
842;SDS011;407;48.884;9.126;2023-01-30T06:52:46;13.35;;;5.07;;
842;SDS011;407;48.884;9.126;2023-01-30T06:55:15;10.70;;;4.47;;
842;SDS011;407;48.884;9.126;2023-01-30T06:57:42;13.95;;;5.00;;
842;SDS011;407;48.884;9.126;2023-01-30T07:00:26;14.48;;;5.32;;
842;SDS011;407;48.884;9.126;2023-01-30T07:02:52;13.20;;;5.40;;
842;SDS011;407;48.884;9.126;2023-01-30T07:05:17;11.37;;;5.00;;
842;SDS011;407;48.884;9.126;2023-01-30T07:07:43;10.70;;;4.83;;
842;SDS011;407;48.884;9.126;2023-01-30T07:10:09;11.07;;;4.82;;
842;SDS011;407;48.884;9.126;2023-01-30T07:12:36;12.43;;;5.53;;
842;SDS011;407;48.884;9.126;2023-01-30T07:15:02;12.32;;;5.00;;
842;SDS011;407;48.884;9.126;2023-01-30T07:17:29;11.10;;;4.50;;
842;SDS011;407;48.884;9.126;2023-01-30T07:19:54;12.57;;;4.50;;
842;SDS011;407;48.884;9.126;2023-01-30T07:22:20;13.97;;;5.37;;
842;SDS011;407;48.884;9.126;2023-01-30T07:24:45;14.13;;;4.55;;
842;SDS011;407;48.884;9.126;2023-01-30T07:27:11;12.30;;;4.87;;
842;SDS011;407;48.884;9.126;2023-01-30T07:29:37;10.88;;;4.50;;
842;SDS011;407;48.884;9.126;2023-01-30T07:32:07;13.43;;;4.30;;
842;SDS011;407;48.884;9.126;2023-01-30T07:34:39;11.48;;;4.57;;
842;SDS011;407;48.884;9.126;2023-01-30T07:37:05;12.38;;;4.38;;
842;SDS011;407;48.884;9.126;2023-01-30T07:39:31;10.77;;;4.60;;
842;SDS011;407;48.884;9.126;2023-01-30T07:41:59;13.25;;;4.80;;
842;SDS011;407;48.884;9.126;2023-01-30T07:44:25;9.70;;;4.38;;
842;SDS011;407;48.884;9.126;2023-01-30T07:46:50;10.20;;;3.97;;
842;SDS011;407;48.884;9.126;2023-01-30T07:49:16;17.60;;;3.83;;
842;SDS011;407;48.884;9.126;2023-01-30T07:51:42;12.32;;;4.78;;
842;SDS011;407;48.884;9.126;2023-01-30T07:54:07;12.18;;;4.70;;
842;SDS011;407;48.884;9.126;2023-01-30T07:56:33;11.00;;;4.43;;
842;SDS011;407;48.884;9.126;2023-01-30T07:58:59;11.45;;;4.68;;
842;SDS011;407;48.884;9.126;2023-01-30T08:01:24;13.25;;;3.95;;
842;SDS011;407;48.884;9.126;2023-01-30T08:03:56;15.40;;;4.33;;
842;SDS011;407;48.884;9.126;2023-01-30T08:06:22;15.10;;;4.60;;
842;SDS011;407;48.884;9.126;2023-01-30T08:08:47;11.68;;;4.55;;
842;SDS011;407;48.884;9.126;2023-01-30T08:11:13;12.50;;;4.67;;
842;SDS011;407;48.884;9.126;2023-01-30T08:13:39;11.33;;;4.43;;
842;SDS011;407;48.884;9.126;2023-01-30T08:16:05;8.63;;;3.75;;
842;SDS011;407;48.884;9.126;2023-01-30T08:18:32;9.10;;;3.83;;
842;SDS011;407;48.884;9.126;2023-01-30T08:20:59;13.02;;;4.20;;
842;SDS011;407;48.884;9.126;2023-01-30T08:23:25;13.32;;;5.07;;
842;SDS011;407;48.884;9.126;2023-01-30T08:25:55;12.80;;;3.97;;
842;SDS011;407;48.884;9.126;2023-01-30T08:28:21;11.40;;;4.72;;
842;SDS011;407;48.884;9.126;2023-01-30T08:30:47;11.20;;;3.70;;
842;SDS011;407;48.884;9.126;2023-01-30T08:33:13;12.82;;;4.70;;
842;SDS011;407;48.884;9.126;2023-01-30T08:35:39;13.45;;;5.13;;
842;SDS011;407;48.884;9.126;2023-01-30T08:38:05;9.38;;;3.90;;
842;SDS011;407;48.884;9.126;2023-01-30T08:40:33;11.13;;;5.13;;
842;SDS011;407;48.884;9.126;2023-01-30T08:42:59;16.65;;;4.97;;
842;SDS011;407;48.884;9.126;2023-01-30T08:45:25;10.88;;;4.38;;
842;SDS011;407;48.884;9.126;2023-01-30T08:47:51;11.70;;;4.80;;
842;SDS011;407;48.884;9.126;2023-01-30T08:50:16;12.83;;;4.83;;
842;SDS011;407;48.884;9.126;2023-01-30T08:52:42;11.95;;;4.90;;
842;SDS011;407;48.884;9.126;2023-01-30T08:55:07;12.70;;;4.63;;
842;SDS011;407;48.884;9.126;2023-01-30T08:57:34;11.97;;;4.97;;
842;SDS011;407;48.884;9.126;2023-01-30T09:00:00;11.07;;;4.10;;
842;SDS011;407;48.884;9.126;2023-01-30T09:02:26;11.80;;;3.90;;
842;SDS011;407;48.884;9.126;2023-01-30T09:04:52;11.77;;;4.93;;
842;SDS011;407;48.884;9.126;2023-01-30T09:07:17;10.17;;;4.10;;
842;SDS011;407;48.884;9.126;2023-01-30T09:09:43;10.65;;;3.85;;
842;SDS011;407;48.884;9.126;2023-01-30T09:12:09;13.80;;;3.83;;
842;SDS011;407;48.884;9.126;2023-01-30T09:14:35;11.00;;;3.85;;
842;SDS011;407;48.884;9.126;2023-01-30T09:17:01;11.40;;;3.80;;
842;SDS011;407;48.884;9.126;2023-01-30T09:19:27;10.98;;;3.75;;
842;SDS011;407;48.884;9.126;2023-01-30T09:21:54;10.73;;;3.90;;
842;SDS011;407;48.884;9.126;2023-01-30T09:24:20;8.65;;;3.38;;
842;SDS011;407;48.884;9.126;2023-01-30T09:26:51;10.30;;;3.30;;
842;SDS011;407;48.884;9.126;2023-01-30T09:29:27;10.13;;;3.40;;
842;SDS011;407;48.884;9.126;2023-01-30T09:31:53;10.32;;;4.00;;
842;SDS011;407;48.884;9.126;2023-01-30T09:34:23;8.32;;;3.20;;
842;SDS011;407;48.884;9.126;2023-01-30T09:36:53;8.73;;;3.35;;
842;SDS011;407;48.884;9.126;2023-01-30T09:39:19;8.40;;;3.07;;
842;SDS011;407;48.884;9.126;2023-01-30T09:44:46;8.18;;;3.00;;
842;SDS011;407;48.884;9.126;2023-01-30T09:55:41;8.32;;;3.25;;
842;SDS011;407;48.884;9.126;2023-01-30T09:58:12;11.48;;;4.20;;
842;SDS011;407;48.884;9.126;2023-01-30T10:00:42;7.33;;;2.83;;
842;SDS011;407;48.884;9.126;2023-01-30T10:03:12;8.40;;;3.10;;
842;SDS011;407;48.884;9.126;2023-01-30T10:05:47;7.88;;;3.20;;
842;SDS011;407;48.884;9.126;2023-01-30T10:10:45;10.90;;;3.70;;
842;SDS011;407;48.884;9.126;2023-01-30T10:16:10;9.38;;;3.08;;
842;SDS011;407;48.884;9.126;2023-01-30T10:24:31;7.82;;;3.15;;
842;SDS011;407;48.884;9.126;2023-01-30T10:27:01;9.23;;;3.65;;
842;SDS011;407;48.884;9.126;2023-01-30T10:29:47;7.78;;;3.22;;
842;SDS011;407;48.884;9.126;2023-01-30T10:35:18;10.02;;;3.50;;
842;SDS011;407;48.884;9.126;2023-01-30T10:38:07;9.30;;;3.10;;
842;SDS011;407;48.884;9.126;2023-01-30T10:41:04;8.23;;;2.42;;
842;SDS011;407;48.884;9.126;2023-01-30T10:43:57;7.45;;;2.50;;
842;SDS011;407;48.884;9.126;2023-01-30T10:46:38;6.30;;;2.00;;
842;SDS011;407;48.884;9.126;2023-01-30T10:49:17;6.03;;;1.77;;
842;SDS011;407;48.884;9.126;2023-01-30T10:55:05;6.60;;;2.30;;
842;SDS011;407;48.884;9.126;2023-01-30T11:03:45;8.02;;;2.30;;
842;SDS011;407;48.884;9.126;2023-01-30T11:06:16;11.30;;;1.65;;
842;SDS011;407;48.884;9.126;2023-01-30T11:08:47;6.55;;;1.80;;
842;SDS011;407;48.884;9.126;2023-01-30T11:11:25;5.72;;;1.60;;
842;SDS011;407;48.884;9.126;2023-01-30T11:14:26;7.57;;;3.70;;
842;SDS011;407;48.884;9.126;2023-01-30T11:16:56;6.13;;;1.20;;
842;SDS011;407;48.884;9.126;2023-01-30T11:19:23;6.30;;;1.10;;
842;SDS011;407;48.884;9.126;2023-01-30T11:21:55;5.30;;;1.50;;
842;SDS011;407;48.884;9.126;2023-01-30T11:24:29;4.70;;;1.00;;
842;SDS011;407;48.884;9.126;2023-01-30T11:30:29;4.80;;;1.10;;
842;SDS011;407;48.884;9.126;2023-01-30T11:32:52;5.80;;;1.00;;
842;SDS011;407;48.884;9.126;2023-01-30T11:35:43;4.88;;;1.40;;
842;SDS011;407;48.884;9.126;2023-01-30T11:38:39;5.10;;;1.20;;
842;SDS011;407;48.884;9.126;2023-01-30T11:41:20;6.15;;;1.30;;
842;SDS011;407;48.884;9.126;2023-01-30T11:43:46;5.38;;;1.30;;
842;SDS011;407;48.884;9.126;2023-01-30T11:46:14;5.78;;;1.35;;
842;SDS011;407;48.884;9.126;2023-01-30T11:48:48;5.23;;;1.30;;
842;SDS011;407;48.884;9.126;2023-01-30T11:51:20;5.13;;;0.93;;
842;SDS011;407;48.884;9.126;2023-01-30T11:53:55;4.20;;;0.50;;
842;SDS011;407;48.884;9.126;2023-01-30T11:56:34;4.00;;;0.50;;
842;SDS011;407;48.884;9.126;2023-01-30T12:02:00;4.80;;;1.07;;
842;SDS011;407;48.884;9.126;2023-01-30T12:04:41;4.90;;;0.70;;
842;SDS011;407;48.884;9.126;2023-01-30T12:09:53;4.20;;;0.70;;
842;SDS011;407;48.884;9.126;2023-01-30T12:12:33;4.28;;;0.95;;
842;SDS011;407;48.884;9.126;2023-01-30T12:26:17;4.20;;;0.70;;
842;SDS011;407;48.884;9.126;2023-01-30T12:32:04;3.70;;;0.50;;
842;SDS011;407;48.884;9.126;2023-01-30T12:34:44;4.80;;;0.60;;
842;SDS011;407;48.884;9.126;2023-01-30T12:39:50;3.90;;;0.47;;
842;SDS011;407;48.884;9.126;2023-01-30T12:50:49;4.10;;;0.70;;
842;SDS011;407;48.884;9.126;2023-01-30T12:58:59;3.85;;;0.80;;
842;SDS011;407;48.884;9.126;2023-01-30T13:07:33;4.72;;;0.73;;
842;SDS011;407;48.884;9.126;2023-01-30T13:10:53;4.45;;;0.98;;
842;SDS011;407;48.884;9.126;2023-01-30T13:13:05;4.70;;;0.65;;
842;SDS011;407;48.884;9.126;2023-01-30T13:18:33;4.60;;;0.70;;
842;SDS011;407;48.884;9.126;2023-01-30T13:21:30;4.70;;;1.00;;
842;SDS011;407;48.884;9.126;2023-01-30T13:27:03;4.50;;;0.80;;
842;SDS011;407;48.884;9.126;2023-01-30T13:29:37;3.70;;;0.40;;
842;SDS011;407;48.884;9.126;2023-01-30T13:32:09;3.90;;;0.50;;
842;SDS011;407;48.884;9.126;2023-01-30T13:34:40;4.40;;;0.70;;
842;SDS011;407;48.884;9.126;2023-01-30T13:37:13;5.40;;;1.02;;
842;SDS011;407;48.884;9.126;2023-01-30T13:45:17;6.85;;;2.50;;
842;SDS011;407;48.884;9.126;2023-01-30T13:47:56;5.30;;;1.13;;
842;SDS011;407;48.884;9.126;2023-01-30T14:02:07;6.13;;;2.08;;
842;SDS011;407;48.884;9.126;2023-01-30T14:09:36;5.60;;;2.10;;
842;SDS011;407;48.884;9.126;2023-01-30T14:12:22;6.65;;;1.80;;
842;SDS011;407;48.884;9.126;2023-01-30T14:20:23;6.00;;;1.67;;
842;SDS011;407;48.884;9.126;2023-01-30T14:22:52;5.30;;;1.40;;
842;SDS011;407;48.884;9.126;2023-01-30T14:25:44;4.72;;;1.02;;
842;SDS011;407;48.884;9.126;2023-01-30T14:30:46;6.05;;;1.40;;
842;SDS011;407;48.884;9.126;2023-01-30T14:38:35;6.45;;;1.70;;
842;SDS011;407;48.884;9.126;2023-01-30T14:46:06;6.93;;;1.50;;
842;SDS011;407;48.884;9.126;2023-01-30T14:49:03;5.70;;;1.30;;
842;SDS011;407;48.884;9.126;2023-01-30T14:51:43;6.13;;;1.70;;
842;SDS011;407;48.884;9.126;2023-01-30T14:56:50;6.15;;;1.80;;
842;SDS011;407;48.884;9.126;2023-01-30T15:10:43;5.82;;;2.00;;
842;SDS011;407;48.884;9.126;2023-01-30T15:16:17;6.38;;;2.58;;
842;SDS011;407;48.884;9.126;2023-01-30T15:19:09;7.00;;;2.10;;
842;SDS011;407;48.884;9.126;2023-01-30T15:27:04;7.32;;;2.50;;
842;SDS011;407;48.884;9.126;2023-01-30T15:32:44;6.50;;;2.55;;
842;SDS011;407;48.884;9.126;2023-01-30T15:37:46;6.22;;;2.35;;
842;SDS011;407;48.884;9.126;2023-01-30T15:45:22;8.43;;;2.80;;
842;SDS011;407;48.884;9.126;2023-01-30T15:50:39;8.50;;;2.53;;
842;SDS011;407;48.884;9.126;2023-01-30T15:53:11;10.65;;;2.78;;
842;SDS011;407;48.884;9.126;2023-01-30T15:55:40;6.68;;;2.08;;
842;SDS011;407;48.884;9.126;2023-01-30T15:58:13;7.97;;;2.70;;
842;SDS011;407;48.884;9.126;2023-01-30T16:00:46;8.07;;;2.28;;
842;SDS011;407;48.884;9.126;2023-01-30T16:03:23;5.63;;;1.97;;
842;SDS011;407;48.884;9.126;2023-01-30T16:05:55;6.80;;;2.42;;
842;SDS011;407;48.884;9.126;2023-01-30T16:08:26;10.20;;;3.00;;
842;SDS011;407;48.884;9.126;2023-01-30T16:10:53;7.45;;;2.75;;
842;SDS011;407;48.884;9.126;2023-01-30T16:13:20;6.57;;;2.20;;
842;SDS011;407;48.884;9.126;2023-01-30T16:18:40;6.63;;;2.78;;
842;SDS011;407;48.884;9.126;2023-01-30T16:21:15;7.18;;;2.55;;
842;SDS011;407;48.884;9.126;2023-01-30T16:23:53;8.27;;;2.90;;
842;SDS011;407;48.884;9.126;2023-01-30T16:26:24;10.23;;;2.35;;
842;SDS011;407;48.884;9.126;2023-01-30T16:28:50;8.17;;;2.90;;
842;SDS011;407;48.884;9.126;2023-01-30T16:31:32;9.73;;;2.55;;
842;SDS011;407;48.884;9.126;2023-01-30T16:34:00;7.68;;;2.78;;
842;SDS011;407;48.884;9.126;2023-01-30T16:38:53;7.80;;;2.70;;
842;SDS011;407;48.884;9.126;2023-01-30T16:41:35;5.93;;;2.03;;
842;SDS011;407;48.884;9.126;2023-01-30T16:52:12;8.30;;;2.60;;
842;SDS011;407;48.884;9.126;2023-01-30T16:55:01;7.18;;;2.58;;
842;SDS011;407;48.884;9.126;2023-01-30T16:57:35;6.40;;;2.20;;
842;SDS011;407;48.884;9.126;2023-01-30T17:02:58;6.80;;;2.40;;
842;SDS011;407;48.884;9.126;2023-01-30T17:07:53;10.38;;;2.30;;
842;SDS011;407;48.884;9.126;2023-01-30T17:13:09;9.82;;;2.30;;
842;SDS011;407;48.884;9.126;2023-01-30T17:18:57;8.30;;;2.50;;
842;SDS011;407;48.884;9.126;2023-01-30T17:21:25;8.38;;;2.70;;
842;SDS011;407;48.884;9.126;2023-01-30T17:24:01;9.10;;;3.05;;
842;SDS011;407;48.884;9.126;2023-01-30T17:26:29;7.25;;;2.15;;
842;SDS011;407;48.884;9.126;2023-01-30T17:28:55;9.32;;;3.30;;
842;SDS011;407;48.884;9.126;2023-01-30T17:31:20;9.30;;;2.73;;
842;SDS011;407;48.884;9.126;2023-01-30T17:33:46;8.27;;;3.35;;
842;SDS011;407;48.884;9.126;2023-01-30T17:36:19;11.13;;;3.17;;
842;SDS011;407;48.884;9.126;2023-01-30T17:38:50;7.68;;;2.80;;
842;SDS011;407;48.884;9.126;2023-01-30T17:41:20;9.32;;;3.22;;
842;SDS011;407;48.884;9.126;2023-01-30T17:43:47;7.63;;;2.95;;
842;SDS011;407;48.884;9.126;2023-01-30T17:46:13;8.55;;;3.58;;
842;SDS011;407;48.884;9.126;2023-01-30T17:48:39;9.48;;;2.80;;
842;SDS011;407;48.884;9.126;2023-01-30T17:51:05;8.73;;;3.33;;
842;SDS011;407;48.884;9.126;2023-01-30T17:53:30;6.63;;;2.70;;
842;SDS011;407;48.884;9.126;2023-01-30T17:55:56;9.73;;;3.47;;
842;SDS011;407;48.884;9.126;2023-01-30T17:58:22;9.75;;;3.15;;
842;SDS011;407;48.884;9.126;2023-01-30T18:00:47;10.73;;;2.87;;
842;SDS011;407;48.884;9.126;2023-01-30T18:03:13;9.10;;;3.03;;
842;SDS011;407;48.884;9.126;2023-01-30T18:05:39;8.23;;;3.17;;
842;SDS011;407;48.884;9.126;2023-01-30T18:08:05;15.10;;;4.15;;
842;SDS011;407;48.884;9.126;2023-01-30T18:10:30;6.95;;;3.00;;
842;SDS011;407;48.884;9.126;2023-01-30T18:12:56;10.00;;;2.87;;
842;SDS011;407;48.884;9.126;2023-01-30T18:15:22;8.47;;;3.60;;
842;SDS011;407;48.884;9.126;2023-01-30T18:17:48;8.50;;;2.97;;
842;SDS011;407;48.884;9.126;2023-01-30T18:20:15;10.07;;;3.73;;
842;SDS011;407;48.884;9.126;2023-01-30T18:22:42;8.15;;;2.67;;
842;SDS011;407;48.884;9.126;2023-01-30T18:25:08;10.03;;;3.20;;
842;SDS011;407;48.884;9.126;2023-01-30T18:27:37;7.82;;;2.95;;
842;SDS011;407;48.884;9.126;2023-01-30T18:30:04;6.90;;;2.60;;
842;SDS011;407;48.884;9.126;2023-01-30T18:32:30;9.40;;;3.05;;
842;SDS011;407;48.884;9.126;2023-01-30T18:34:55;7.75;;;2.60;;
842;SDS011;407;48.884;9.126;2023-01-30T18:37:21;7.80;;;3.47;;
842;SDS011;407;48.884;9.126;2023-01-30T18:39:46;9.50;;;3.80;;
842;SDS011;407;48.884;9.126;2023-01-30T18:42:12;10.45;;;4.28;;
842;SDS011;407;48.884;9.126;2023-01-30T18:44:37;12.13;;;4.20;;
842;SDS011;407;48.884;9.126;2023-01-30T18:47:03;10.10;;;3.50;;
842;SDS011;407;48.884;9.126;2023-01-30T18:49:29;8.00;;;2.90;;
842;SDS011;407;48.884;9.126;2023-01-30T18:51:54;11.80;;;3.50;;
842;SDS011;407;48.884;9.126;2023-01-30T18:54:20;9.45;;;4.25;;
842;SDS011;407;48.884;9.126;2023-01-30T18:56:46;9.30;;;4.20;;
842;SDS011;407;48.884;9.126;2023-01-30T18:59:11;8.33;;;3.40;;
842;SDS011;407;48.884;9.126;2023-01-30T19:01:37;9.98;;;4.45;;
842;SDS011;407;48.884;9.126;2023-01-30T19:04:06;8.45;;;3.67;;
842;SDS011;407;48.884;9.126;2023-01-30T19:06:34;10.45;;;4.70;;
842;SDS011;407;48.884;9.126;2023-01-30T19:09:01;9.35;;;3.80;;
842;SDS011;407;48.884;9.126;2023-01-30T19:11:28;8.77;;;3.35;;
842;SDS011;407;48.884;9.126;2023-01-30T19:14:12;9.95;;;4.20;;
842;SDS011;407;48.884;9.126;2023-01-30T19:16:38;10.17;;;4.00;;
842;SDS011;407;48.884;9.126;2023-01-30T19:19:05;9.68;;;4.05;;
842;SDS011;407;48.884;9.126;2023-01-30T19:21:31;11.55;;;3.53;;
842;SDS011;407;48.884;9.126;2023-01-30T19:23:57;9.52;;;4.10;;
842;SDS011;407;48.884;9.126;2023-01-30T19:26:26;12.45;;;4.90;;
842;SDS011;407;48.884;9.126;2023-01-30T19:28:53;9.30;;;3.60;;
842;SDS011;407;48.884;9.126;2023-01-30T19:31:19;11.80;;;4.23;;
842;SDS011;407;48.884;9.126;2023-01-30T19:33:46;11.30;;;4.73;;
842;SDS011;407;48.884;9.126;2023-01-30T19:36:17;8.95;;;4.07;;